Time;durP1;ratioP1;P1;durP2;ratioP2;P2;SDS_P1;SDS_P2;PMS_P1;PMS_P2;Temp;Humidity;BMP_temperature;BMP_pressure;BME280_temperature;BME280_humidity;BME280_pressure;Samples;Min_cycle;Max_cycle;Signal;HPM_P1;HPM_P2
2022/04/13 00:01:42;;;;;;;7.97;5.20;;;;;;;10.99;48.82;94870.28;4990138;28;20201;-82
2022/04/13 00:04:09;;;;;;;7.10;5.03;;;;;;;11.03;48.94;94870.81;4991252;28;20639;-79
2022/04/13 00:06:38;;;;;;;6.80;5.17;;;;;;;11.00;48.94;94878.75;4990385;28;20697;-81
2022/04/13 00:09:06;;;;;;;7.03;4.67;;;;;;;10.97;48.98;94879.03;4990137;28;20283;-82
2022/04/13 00:11:33;;;;;;;8.13;4.50;;;;;;;10.94;49.14;94869.06;4990221;28;20189;-80
2022/04/13 00:14:00;;;;;;;8.30;5.27;;;;;;;10.93;48.98;94870.81;4989983;28;20203;-82
2022/04/13 00:16:27;;;;;;;8.20;4.83;;;;;;;10.86;49.13;94862.06;4990499;28;20637;-77
2022/04/13 00:18:54;;;;;;;8.77;5.17;;;;;;;10.85;49.33;94865.56;4990167;28;20223;-83
2022/04/13 00:21:21;;;;;;;7.90;5.17;;;;;;;10.85;49.31;94867.31;4990695;28;20635;-81
2022/04/13 00:23:49;;;;;;;6.87;4.57;;;;;;;10.83;49.20;94864.88;4989642;28;20608;-79
2022/04/13 00:26:16;;;;;;;8.73;5.80;;;;;;;10.82;49.36;94873.50;4990249;28;20237;-76
2022/04/13 00:28:43;;;;;;;7.50;4.97;;;;;;;10.79;49.41;94860.97;4989914;28;20189;-80
2022/04/13 00:31:10;;;;;;;9.17;5.53;;;;;;;10.76;49.47;94872.31;4990478;28;20188;-80
2022/04/13 00:33:37;;;;;;;9.10;5.60;;;;;;;10.74;49.51;94863.13;4989756;28;20661;-76
2022/04/13 00:36:04;;;;;;;10.73;6.10;;;;;;;10.72;49.80;94870.16;4990016;28;20197;-79
2022/04/13 00:38:31;;;;;;;11.07;5.40;;;;;;;10.69;49.82;94868.66;4989438;28;20205;-79
2022/04/13 00:40:59;;;;;;;13.20;6.40;;;;;;;10.66;49.81;94866.34;4990395;28;20657;-78
2022/04/13 00:43:26;;;;;;;8.50;5.50;;;;;;;10.67;49.74;94865.44;4990189;28;20188;-82
2022/04/13 00:45:53;;;;;;;12.57;5.67;;;;;;;10.66;49.91;94863.00;4989462;28;20200;-81
2022/04/13 00:48:29;;;;;;;12.63;6.90;;;;;;;10.58;50.08;94862.84;4989983;28;20197;-82
2022/04/13 00:50:56;;;;;;;13.90;6.80;;;;;;;10.60;50.12;94866.09;4990327;28;20234;-80
2022/04/13 00:53:24;;;;;;;13.03;6.23;;;;;;;10.55;50.11;94866.50;4989158;28;20189;-81
2022/04/13 00:55:54;;;;;;;16.67;6.03;;;;;;;10.56;50.16;94873.22;4990234;28;20185;-79
2022/04/13 00:58:24;;;;;;;11.63;5.77;;;;;;;10.54;50.18;94872.56;4991484;28;20192;-77
2022/04/13 01:00:51;;;;;;;16.43;6.87;;;;;;;10.52;50.23;94875.22;4994034;28;20699;-81
2022/04/13 01:03:20;;;;;;;14.63;6.20;;;;;;;10.50;50.20;94871.22;4994492;28;20185;-79
2022/04/13 01:05:48;;;;;;;12.93;6.37;;;;;;;10.48;50.43;94881.56;4994019;28;20193;-83
2022/04/13 01:08:17;;;;;;;13.47;6.80;;;;;;;10.47;50.39;94879.13;4993880;28;20243;-79
2022/04/13 01:10:45;;;;;;;11.23;6.30;;;;;;;10.41;50.39;94877.13;4993579;28;20200;-76
2022/04/13 01:13:12;;;;;;;11.90;6.37;;;;;;;10.41;50.56;94877.13;4993880;28;20193;-82
2022/04/13 01:15:41;;;;;;;9.77;6.13;;;;;;;10.41;50.63;94879.69;4993121;28;20196;-79
2022/04/13 01:18:08;;;;;;;13.13;6.20;;;;;;;10.41;50.61;94875.38;4993844;28;20196;-80
2022/04/13 01:20:39;;;;;;;17.17;6.53;;;;;;;10.38;50.70;94882.50;4993407;28;20204;-82
2022/04/13 01:23:08;;;;;;;10.50;6.53;;;;;;;10.36;50.72;94881.81;4993945;28;20220;-80
2022/04/13 01:25:35;;;;;;;13.00;6.33;;;;;;;10.33;50.69;94874.41;4993016;28;20229;-81
2022/04/13 01:28:02;;;;;;;10.87;6.10;;;;;;;10.29;50.78;94876.41;4993743;28;20213;-80
2022/04/13 01:30:28;;;;;;;10.80;6.43;;;;;;;10.28;50.92;94880.72;4993353;28;20213;-80
2022/04/13 01:32:55;;;;;;;11.07;6.73;;;;;;;10.25;50.82;94875.88;4993467;28;20620;-80
2022/04/13 01:35:23;;;;;;;9.27;6.73;;;;;;;10.23;51.00;94876.91;4993274;28;20196;-81
2022/04/13 01:37:50;;;;;;;11.03;6.47;;;;;;;10.19;51.05;94867.88;4993780;28;20193;-80
2022/04/13 01:40:19;;;;;;;14.63;6.67;;;;;;;10.20;50.86;94879.72;4993340;28;20197;-81
2022/04/13 01:42:47;;;;;;;11.90;6.80;;;;;;;10.18;50.87;94876.47;4993874;28;20617;-81
2022/04/13 01:45:19;;;;;;;10.17;6.17;;;;;;;10.17;51.07;94879.97;4992640;28;20196;-83
2022/04/13 01:47:47;;;;;;;14.70;6.77;;;;;;;10.14;51.03;94870.81;4993577;28;20626;-79
2022/04/13 01:50:14;;;;;;;11.33;6.40;;;;;;;10.13;50.94;94865.84;4997332;28;20200;-81
2022/04/13 01:52:41;;;;;;;9.87;5.70;;;;;;;10.11;51.03;94867.75;4993412;28;20188;-81
2022/04/13 01:55:08;;;;;;;9.10;6.20;;;;;;;10.05;51.27;94866.50;4993530;28;20204;-81
2022/04/13 01:57:37;;;;;;;9.37;5.67;;;;;;;10.05;51.17;94866.50;4993077;28;20189;-79
2022/04/13 02:00:05;;;;;;;14.77;6.43;;;;;;;10.02;51.26;94869.34;4993563;28;20193;-77
2022/04/13 02:02:32;;;;;;;10.77;6.77;;;;;;;10.01;51.34;94878.72;4992796;28;20805;-81
2022/04/13 02:04:59;;;;;;;8.67;5.87;;;;;;;9.99;51.40;94870.38;4993253;28;20239;-79
2022/04/13 02:07:26;;;;;;;6.87;5.70;;;;;;;9.98;51.35;94873.09;4992881;28;20707;-81
2022/04/13 02:09:53;;;;;;;13.60;6.27;;;;;;;9.95;51.55;94865.66;4992216;28;20199;-80
2022/04/13 02:12:20;;;;;;;11.57;6.10;;;;;;;9.91;51.43;94862.56;4993331;28;20188;-79
2022/04/13 02:14:48;;;;;;;9.50;6.00;;;;;;;9.94;51.50;94867.41;4992660;28;20664;-81
2022/04/13 02:17:16;;;;;;;8.43;6.27;;;;;;;9.93;51.30;94863.25;4993206;28;20200;-75
2022/04/13 02:19:44;;;;;;;10.80;6.17;;;;;;;9.90;51.55;94866.06;4993095;28;20209;-80
2022/04/13 02:22:11;;;;;;;7.10;5.50;;;;;;;9.88;51.59;94867.91;4992313;28;20244;-78
2022/04/13 02:24:39;;;;;;;10.67;7.07;;;;;;;9.84;51.51;94856.34;4992780;28;20669;-79
2022/04/13 02:27:07;;;;;;;8.43;6.17;;;;;;;9.83;51.84;94856.47;4992183;28;20271;-83
2022/04/13 02:29:34;;;;;;;11.40;6.30;;;;;;;9.83;51.89;94862.38;4992001;28;20271;-80
2022/04/13 02:32:02;;;;;;;11.53;6.93;;;;;;;9.80;52.01;94858.38;4992638;28;20247;-80
2022/04/13 02:34:29;;;;;;;11.47;6.10;;;;;;;9.82;51.99;94860.78;4993031;28;20185;-82
2022/04/13 02:36:56;;;;;;;10.77;6.47;;;;;;;9.78;52.15;94867.09;4991846;28;20200;-78
2022/04/13 02:39:23;;;;;;;9.67;5.97;;;;;;;9.74;52.21;94860.63;4992817;28;20199;-77
2022/04/13 02:41:50;;;;;;;9.90;6.53;;;;;;;9.73;52.33;94859.00;4992638;28;20196;-77
2022/04/13 02:44:17;;;;;;;15.10;6.00;;;;;;;9.72;52.24;94857.38;4992367;28;20196;-75
2022/04/13 02:46:44;;;;;;;10.77;6.53;;;;;;;9.71;52.28;94859.13;4992400;28;20223;-79
2022/04/13 02:49:12;;;;;;;9.33;5.77;;;;;;;9.65;52.17;94846.88;4992095;28;20213;-81
2022/04/13 02:51:39;;;;;;;10.13;6.30;;;;;;;9.63;52.23;94850.47;4992348;28;20201;-73
2022/04/13 02:54:06;;;;;;;7.97;5.70;;;;;;;9.67;52.35;94855.22;4992130;28;20196;-80
2022/04/13 02:56:33;;;;;;;7.47;4.87;;;;;;;9.63;52.43;94853.88;4992248;28;20193;-81
2022/04/13 02:59:00;;;;;;;10.40;5.37;;;;;;;9.61;52.39;94857.47;4991949;28;20185;-79
2022/04/13 03:01:27;;;;;;;8.37;5.33;;;;;;;9.60;52.37;94859.22;4992139;28;20652;-78
2022/04/13 03:03:54;;;;;;;8.43;5.07;;;;;;;9.58;52.47;94858.50;4992296;28;20185;-80
2022/04/13 03:06:23;;;;;;;9.13;5.50;;;;;;;9.56;52.31;94857.84;4991660;28;20193;-83
2022/04/13 03:08:49;;;;;;;8.03;5.03;;;;;;;9.55;52.44;94869.81;4991726;28;20204;-79
2022/04/13 03:11:17;;;;;;;7.10;4.80;;;;;;;9.55;52.34;94872.38;4992298;28;20196;-81
2022/04/13 03:13:46;;;;;;;8.57;5.37;;;;;;;9.48;52.42;94860.22;4992230;28;20204;-81
2022/04/13 03:16:13;;;;;;;11.43;4.77;;;;;;;9.51;52.35;94867.63;4991840;28;20294;-81
2022/04/13 03:18:40;;;;;;;10.13;4.47;;;;;;;9.50;52.34;94871.94;4991720;28;20208;-80
2022/04/13 03:21:06;;;;;;;6.83;4.67;;;;;;;9.49;52.30;94870.31;4991284;28;20197;-78
2022/04/13 03:23:35;;;;;;;8.20;4.53;;;;;;;9.48;52.50;94875.53;4991007;28;20192;-79
2022/04/13 03:26:02;;;;;;;6.50;4.57;;;;;;;9.47;52.38;94872.19;4991095;28;20233;-79
2022/04/13 03:28:28;;;;;;;7.90;4.40;;;;;;;9.45;52.49;94878.34;4991260;28;20267;-80
2022/04/13 03:30:55;;;;;;;8.00;5.17;;;;;;;9.44;52.48;94879.28;4991219;28;20637;-81
2022/04/13 03:33:22;;;;;;;9.17;4.93;;;;;;;9.43;52.63;94875.94;4992211;28;20186;-78
2022/04/13 03:35:49;;;;;;;6.10;4.40;;;;;;;9.36;52.57;94872.25;4991660;28;20192;-81
2022/04/13 03:38:16;;;;;;;8.20;4.63;;;;;;;9.39;52.70;94863.53;4991455;28;20712;-75
2022/04/13 03:40:44;;;;;;;11.07;5.20;;;;;;;9.38;52.75;94875.50;4990512;28;20193;-78
2022/04/13 03:43:11;;;;;;;8.30;4.70;;;;;;;9.36;52.79;94867.13;4991182;28;20661;-80
2022/04/13 03:45:38;;;;;;;8.00;4.90;;;;;;;9.36;52.74;94879.09;4990201;28;20185;-75
2022/04/13 03:48:05;;;;;;;8.80;5.57;;;;;;;9.34;52.90;94881.78;4991070;28;20613;-78
2022/04/13 03:50:32;;;;;;;11.50;5.30;;;;;;;9.33;52.92;94871.72;4991248;28;20196;-79
2022/04/13 03:52:59;;;;;;;8.57;5.03;;;;;;;9.33;53.13;94879.38;4990704;28;20189;-78
2022/04/13 03:55:26;;;;;;;7.83;5.40;;;;;;;9.35;52.94;94885.16;4990713;28;20193;-79
2022/04/13 03:57:54;;;;;;;9.27;5.83;;;;;;;9.31;53.03;94866.72;4990817;28;20185;-78
2022/04/13 04:00:21;;;;;;;9.10;6.17;;;;;;;9.36;53.28;94879.09;4991205;28;20185;-78
2022/04/13 04:02:48;;;;;;;10.53;5.87;;;;;;;9.38;52.83;94882.34;4990912;28;20668;-79
2022/04/13 04:05:15;;;;;;;8.83;4.97;;;;;;;9.39;53.17;94889.06;4991322;28;20189;-80
2022/04/13 04:07:42;;;;;;;11.43;6.00;;;;;;;9.40;53.12;94890.69;4990121;28;20246;-80
2022/04/13 04:10:10;;;;;;;16.40;6.23;;;;;;;9.45;53.27;94901.31;4991124;28;20280;-82
2022/04/13 04:12:38;;;;;;;10.27;6.00;;;;;;;9.44;53.03;94887.75;4990584;28;20610;-80
2022/04/13 04:15:08;;;;;;;13.67;5.97;;;;;;;9.52;52.94;94894.78;4990452;28;20181;-78
2022/04/13 04:17:35;;;;;;;10.63;6.37;;;;;;;9.58;52.78;94904.47;4990285;28;20216;-77
2022/04/13 04:20:02;;;;;;;9.90;5.93;;;;;;;9.69;52.56;94906.97;4991152;28;20192;-76
2022/04/13 04:22:29;;;;;;;9.17;5.93;;;;;;;9.78;52.38;94903.63;4990585;28;20182;-77
2022/04/13 04:24:55;;;;;;;14.60;6.10;;;;;;;10.00;52.10;94919.72;4990745;28;20192;-80
2022/04/13 04:27:22;;;;;;;10.83;5.30;;;;;;;10.21;51.63;94923.03;4990368;28;20232;-78
2022/04/13 04:29:49;;;;;;;15.97;5.63;;;;;;;10.48;51.13;94925.03;4990478;28;20185;-76
2022/04/13 04:32:17;;;;;;;9.63;6.13;;;;;;;10.82;50.47;94934.91;4991495;28;20625;-75
2022/04/13 04:34:44;;;;;;;8.37;5.33;;;;;;;11.20;50.11;94934.13;4991699;28;20188;-77
2022/04/13 04:37:11;;;;;;;8.17;5.63;;;;;;;11.61;50.08;94934.72;4991488;28;20561;-80
2022/04/13 04:39:38;;;;;;;10.23;5.70;;;;;;;12.05;50.14;94943.56;4990954;28;20193;-79
2022/04/13 04:42:05;;;;;;;8.53;5.40;;;;;;;12.49;49.85;94946.34;4990585;28;20201;-78
2022/04/13 04:44:32;;;;;;;10.03;5.80;;;;;;;12.49;49.17;94879.63;4989681;28;20196;-78
2022/04/13 04:46:59;;;;;;;10.37;6.27;;;;;;;13.34;48.65;94952.00;4990449;28;20192;-78
2022/04/13 04:49:27;;;;;;;10.50;6.23;;;;;;;13.80;48.23;94955.22;4990425;28;20185;-77
2022/04/13 04:51:54;;;;;;;13.50;6.30;;;;;;;14.15;47.50;94962.03;4990073;28;20196;-79
2022/04/13 04:54:21;;;;;;;9.63;6.17;;;;;;;14.48;46.77;94965.59;4989708;28;20566;-78
2022/04/13 04:56:48;;;;;;;14.13;7.60;;;;;;;14.72;45.81;94961.47;4989870;28;20201;-80
2022/04/13 04:59:15;;;;;;;11.13;6.87;;;;;;;14.89;44.92;94970.88;4989755;28;20664;-79
2022/04/13 05:01:42;;;;;;;10.60;7.10;;;;;;;15.02;44.15;94978.16;4990610;28;20221;-81
2022/04/13 05:04:10;;;;;;;10.73;6.67;;;;;;;15.10;43.68;94980.75;4990732;28;20193;-76
2022/04/13 05:06:38;;;;;;;10.80;7.70;;;;;;;15.17;43.32;94980.94;4989102;28;20181;-78
2022/04/13 05:09:05;;;;;;;9.07;6.50;;;;;;;15.18;42.91;94979.94;4989963;28;20228;-78
2022/04/13 05:11:31;;;;;;;15.17;6.90;;;;;;;15.29;42.49;94985.63;4990017;28;20193;-76
2022/04/13 05:13:58;;;;;;;8.87;6.87;;;;;;;15.46;42.15;94986.44;4989832;28;20193;-82
2022/04/13 05:16:25;;;;;;;14.93;6.90;;;;;;;15.71;41.83;94996.75;4990525;28;20195;-81
2022/04/13 05:18:52;;;;;;;10.20;6.40;;;;;;;16.03;41.85;94975.31;4991174;28;20197;-88
2022/04/13 05:21:19;;;;;;;12.70;6.80;;;;;;;16.53;41.31;94990.47;4989898;28;20201;-75
2022/04/13 05:23:47;;;;;;;14.90;6.60;;;;;;;17.14;40.75;94989.91;4990330;28;20181;-78
2022/04/13 05:26:18;;;;;;;12.97;7.33;;;;;;;17.80;40.33;94985.94;4989207;28;20232;-79
2022/04/13 05:28:45;;;;;;;14.40;5.97;;;;;;;18.55;39.64;94990.19;4970517;28;20578;-80
2022/04/13 05:31:12;;;;;;;17.27;6.40;;;;;;;19.33;38.69;94986.13;4970484;28;20198;-78
2022/04/13 05:33:39;;;;;;;9.13;5.97;;;;;;;20.14;37.80;94993.66;4970913;28;20189;-75
2022/04/13 05:36:06;;;;;;;12.90;6.00;;;;;;;20.95;36.70;94991.34;4970226;28;20636;-78
2022/04/13 05:38:34;;;;;;;12.57;5.97;;;;;;;21.77;35.80;94990.34;4989670;28;20190;-75
2022/04/13 05:41:02;;;;;;;12.67;6.63;;;;;;;22.53;34.51;94984.69;4990034;28;20185;-78
2022/04/13 05:43:31;;;;;;;8.43;6.43;;;;;;;23.37;33.53;94989.00;4989791;28;20193;-78
2022/04/13 05:45:58;;;;;;;7.07;4.10;;;;;;;24.08;38.80;94984.50;4992963;28;20197;-78
2022/04/13 05:48:25;;;;;;;11.95;4.43;;;;;;;24.68;40.83;94992.59;4994009;28;20578;-76
2022/04/13 05:50:52;;;;;;;8.80;4.20;;;;;;;25.21;40.96;94998.03;4993527;28;20201;-78
2022/04/13 05:53:21;;;;;;;8.30;4.03;;;;;;;25.72;40.84;94996.72;4995624;28;20267;-83
2022/04/13 05:55:49;;;;;;;9.88;4.50;;;;;;;26.18;40.09;94989.97;4997228;28;20224;-82
2022/04/13 05:58:17;;;;;;;11.23;4.03;;;;;;;26.63;39.45;94993.88;4997918;28;20207;-83
2022/04/13 06:00:44;;;;;;;8.00;3.80;;;;;;;26.77;37.13;94964.53;4988607;28;20255;-80
2022/04/13 06:03:11;;;;;;;8.52;3.75;;;;;;;27.40;35.83;95004.88;4984608;28;20197;-81
2022/04/13 06:05:39;;;;;;;5.60;3.97;;;;;;;27.80;34.90;95001.38;4991685;28;20197;-80
2022/04/13 06:08:06;;;;;;;4.55;3.30;;;;;;;28.12;34.18;94991.13;4992119;28;20600;-81
2022/04/13 06:10:33;;;;;;;5.40;3.72;;;;;;;28.53;33.57;94999.63;4983248;28;20194;-82
2022/04/13 06:13:00;;;;;;;7.15;4.22;;;;;;;28.83;34.18;95001.88;4989302;28;20203;-85
2022/04/13 06:15:29;;;;;;;5.70;3.60;;;;;;;29.09;33.72;95000.38;4992424;28;20189;-84
2022/04/13 06:17:56;;;;;;;7.00;4.05;;;;;;;29.21;33.53;94994.97;4990847;28;20676;-82
2022/04/13 06:20:23;;;;;;;5.70;3.83;;;;;;;29.37;33.48;94991.47;4989839;28;20193;-85
2022/04/13 06:23:03;;;;;;;6.72;4.18;;;;;;;29.69;33.55;95012.63;4995271;28;20800;-83
2022/04/13 06:25:31;;;;;;;13.20;4.20;;;;;;;29.66;33.75;94967.50;4993585;28;20230;-83
2022/04/13 06:27:57;;;;;;;5.35;3.97;;;;;;;30.10;33.61;95012.22;4989387;28;20217;-83
2022/04/13 06:30:24;;;;;;;12.07;4.53;;;;;;;30.31;32.95;95018.44;4986995;28;20213;-81
2022/04/13 06:32:52;;;;;;;5.20;3.67;;;;;;;30.52;32.26;95017.53;4991609;28;20672;-81
2022/04/13 06:35:19;;;;;;;7.50;4.60;;;;;;;30.70;31.69;95014.47;4991337;28;20196;-81
2022/04/13 06:37:47;;;;;;;8.43;4.60;;;;;;;30.84;31.06;95008.78;4992750;28;20189;-83
2022/04/13 06:40:15;;;;;;;6.10;4.38;;;;;;;30.94;30.38;95012.25;4992930;28;20189;-83
2022/04/13 06:43:08;;;;;;;10.30;5.05;;;;;;;31.09;30.47;95016.81;4987587;28;20205;-84
2022/04/13 06:45:36;;;;;;;6.65;4.55;;;;;;;31.15;30.74;95005.19;4985260;28;20197;-77
2022/04/13 06:48:05;;;;;;;7.10;4.15;;;;;;;31.21;29.85;95006.78;4988742;28;20213;-78
2022/04/13 06:50:32;;;;;;;12.05;4.50;;;;;;;31.27;30.56;95012.13;4980191;28;20197;-78
2022/04/13 06:52:59;;;;;;;5.13;3.60;;;;;;;31.32;31.16;95017.44;4985793;28;20954;-77
2022/04/13 06:55:26;;;;;;;4.65;3.63;;;;;;;31.37;31.34;95015.59;4983902;28;20193;-83
2022/04/13 06:57:53;;;;;;;5.95;3.70;;;;;;;31.48;31.11;95008.50;4978877;28;20201;-81
2022/04/13 07:00:20;;;;;;;7.97;3.55;;;;;;;31.57;30.90;95011.44;4986487;28;20204;-80
2022/04/13 07:02:50;;;;;;;7.22;3.67;;;;;;;31.64;30.60;95004.81;4987926;28;20664;-78
2022/04/13 07:08:32;;;;;;;3.30;3.00;;;;;;;31.82;29.94;95005.34;5342350;23;20299;-73
2022/04/13 07:10:59;;;;;;;6.70;3.25;;;;;;;31.87;30.17;95013.34;5046664;28;20796;-72
2022/04/13 07:13:26;;;;;;;4.63;3.45;;;;;;;31.93;30.19;95015.72;5047217;28;20183;-83
2022/04/13 07:15:53;;;;;;;11.23;4.40;;;;;;;31.95;29.70;95018.91;5046080;28;20190;-71
2022/04/13 07:18:20;;;;;;;7.57;4.18;;;;;;;31.95;29.71;95020.75;5047651;28;20658;-79
2022/04/13 07:20:47;;;;;;;7.30;4.13;;;;;;;31.93;29.72;95015.72;5047013;28;20206;-78
2022/04/13 07:23:14;;;;;;;5.45;3.53;;;;;;;31.92;29.76;95008.84;5047101;28;20210;-78
2022/04/13 07:25:42;;;;;;;5.88;3.88;;;;;;;32.04;29.62;95023.66;5048318;28;20600;-77
2022/04/13 07:28:09;;;;;;;8.38;4.05;;;;;;;32.07;29.04;95028.44;5047041;28;20670;-74
2022/04/13 07:30:36;;;;;;;7.82;4.25;;;;;;;32.11;28.68;95024.19;5046252;28;20201;-76
2022/04/13 07:33:03;;;;;;;6.55;3.60;;;;;;;32.10;28.96;95023.41;5049105;28;20735;-74
2022/04/13 07:35:30;;;;;;;8.23;3.88;;;;;;;32.12;28.86;95025.78;5047233;28;20190;-76
2022/04/13 07:37:59;;;;;;;5.50;3.30;;;;;;;32.14;29.58;95018.38;5047150;28;20665;-76
2022/04/13 07:40:26;;;;;;;13.63;4.50;;;;;;;32.14;29.56;95021.81;5047769;28;20194;-77
2022/04/13 07:42:54;;;;;;;5.95;3.92;;;;;;;32.11;29.29;95003.03;5047297;28;20569;-77
2022/04/13 07:45:21;;;;;;;5.22;3.67;;;;;;;32.16;29.19;95022.31;5047645;28;20199;-77
2022/04/13 07:47:48;;;;;;;5.05;3.45;;;;;;;32.16;29.39;95013.59;5046499;28;20187;-77
2022/04/13 07:50:14;;;;;;;6.82;4.10;;;;;;;32.11;28.84;95011.75;5047108;28;20608;-77
2022/04/13 07:52:43;;;;;;;5.82;3.88;;;;;;;31.98;28.43;94999.84;5046484;28;20657;-77
2022/04/13 07:55:12;;;;;;;4.43;3.47;;;;;;;32.07;28.68;95017.84;5046708;28;20179;-77
2022/04/13 07:57:39;;;;;;;7.90;3.50;;;;;;;32.03;29.05;95016.78;5046340;28;20214;-77
2022/04/13 08:00:10;;;;;;;5.15;3.38;;;;;;;32.00;29.25;95010.19;5046316;28;20194;-77
2022/04/13 08:02:38;;;;;;;5.30;3.45;;;;;;;31.93;29.61;95014.94;5046024;28;20244;-76
2022/04/13 08:05:07;;;;;;;4.72;3.45;;;;;;;31.84;29.88;95005.94;5046261;28;20214;-79
2022/04/13 08:07:34;;;;;;;11.13;3.75;;;;;;;31.78;29.19;95013.06;5044623;28;20194;-74
2022/04/13 08:10:02;;;;;;;6.10;4.00;;;;;;;31.62;29.13;95012.22;5045843;28;20219;-76
2022/04/13 08:12:29;;;;;;;6.95;4.25;;;;;;;31.50;28.98;95011.66;5046464;28;20440;-74
2022/04/13 08:14:56;;;;;;;10.65;4.07;;;;;;;31.39;28.77;95016.16;5045188;28;20193;-73
2022/04/13 08:17:25;;;;;;;6.35;3.35;;;;;;;31.30;28.37;95012.38;5046051;28;20183;-73
2022/04/13 08:19:52;;;;;;;5.10;3.30;;;;;;;31.18;29.15;95020.53;5045632;28;20189;-74
2022/04/13 08:22:23;;;;;;;7.47;3.63;;;;;;;31.12;29.45;95018.13;5046713;28;20199;-74
2022/04/13 08:24:50;;;;;;;6.22;3.88;;;;;;;31.04;29.97;95024.69;5044017;28;20190;-75
2022/04/13 08:27:17;;;;;;;4.43;3.42;;;;;;;31.08;29.95;95028.41;5048383;28;20190;-74
2022/04/13 08:29:45;;;;;;;5.20;3.58;;;;;;;31.18;28.62;95019.75;5047805;28;20226;-74
2022/04/13 08:32:11;;;;;;;5.38;3.90;;;;;;;31.30;27.34;95017.69;5048542;28;20201;-76
2022/04/13 08:34:40;;;;;;;5.75;3.60;;;;;;;31.41;26.98;95016.66;5048218;28;20676;-73
2022/04/13 08:37:07;;;;;;;4.82;3.65;;;;;;;31.48;26.36;95014.59;5048051;28;20194;-75
2022/04/13 08:39:34;;;;;;;5.80;3.35;;;;;;;31.51;26.57;95012.47;5048443;28;20206;-79
2022/04/13 08:42:10;;;;;;;3.95;3.55;;;;;;;31.59;25.16;95011.94;5048103;28;20210;-77
2022/04/13 08:44:49;;;;;;;5.38;3.70;;;;;;;31.57;24.91;95008.78;5047288;28;20293;-74
2022/04/13 08:47:19;;;;;;;3.47;3.17;;;;;;;31.56;24.71;95007.16;5046702;28;20214;-77
2022/04/13 08:49:50;;;;;;;6.88;3.17;;;;;;;31.51;24.30;95001.88;5048000;28;20214;-76
2022/04/13 08:52:22;;;;;;;9.40;3.65;;;;;;;31.36;25.30;94997.38;5047809;28;20199;-74
2022/04/13 08:55:02;;;;;;;5.75;3.45;;;;;;;31.15;25.47;94999.13;5047820;28;20233;-74
2022/04/13 08:57:30;;;;;;;6.97;2.75;;;;;;;30.81;25.34;94990.78;5048370;28;21574;-75
2022/04/13 09:00:09;;;;;;;5.40;3.30;;;;;;;30.58;24.37;94990.13;5047037;28;20195;-75
2022/04/13 09:03:03;;;;;;;3.20;2.90;;;;;;;30.33;24.26;95000.53;5045766;28;20681;-75
2022/04/13 09:05:34;;;;;;;4.55;2.80;;;;;;;30.07;24.39;94997.66;5048426;28;20632;-75
2022/04/13 09:08:10;;;;;;;6.25;3.25;;;;;;;29.94;24.77;94993.59;5047837;28;20227;-75
2022/04/13 09:10:37;;;;;;;3.90;3.35;;;;;;;29.75;24.16;94992.41;5048074;28;20324;-75
2022/04/13 09:13:09;;;;;;;3.80;2.92;;;;;;;29.52;23.99;94985.56;5044062;28;20381;-73
2022/04/13 09:15:37;;;;;;;10.07;4.28;;;;;;;29.30;23.80;94992.72;5047823;28;20244;-76
2022/04/13 09:18:04;;;;;;;5.00;4.00;;;;;;;29.07;23.12;94981.41;5047850;28;20294;-74
2022/04/13 09:20:32;;;;;;;7.18;4.10;;;;;;;28.88;22.72;94982.72;5051326;28;20201;-74
2022/04/13 09:23:01;;;;;;;6.70;4.13;;;;;;;28.72;22.97;94979.91;5051177;28;20662;-74
2022/04/13 09:25:28;;;;;;;7.72;3.65;;;;;;;28.57;22.95;94976.25;5051489;28;20199;-77
2022/04/13 09:27:55;;;;;;;6.00;3.83;;;;;;;28.41;23.09;94975.25;5051827;28;20249;-76
2022/04/13 09:30:22;;;;;;;7.72;4.18;;;;;;;28.24;22.37;94972.66;5051543;28;20716;-75
2022/04/13 09:32:51;;;;;;;7.18;4.03;;;;;;;28.06;22.55;94980.75;5052097;28;20187;-76
2022/04/13 09:35:18;;;;;;;5.18;3.92;;;;;;;27.92;23.13;94975.81;5051656;28;20195;-73
2022/04/13 09:37:46;;;;;;;4.45;3.55;;;;;;;27.79;23.29;94970.88;5049487;28;20564;-75
2022/04/13 09:40:36;;;;;;;4.57;3.25;;;;;;;27.67;23.12;94963.03;5050663;28;20206;-76
2022/04/13 09:43:07;;;;;;;5.32;3.38;;;;;;;27.54;23.73;94959.91;5050773;28;20650;-75
2022/04/13 09:45:35;;;;;;;4.63;3.40;;;;;;;27.42;23.78;94965.25;5051740;28;20348;-76
2022/04/13 09:48:06;;;;;;;4.60;3.33;;;;;;;27.27;23.99;94960.50;5050643;28;20608;-75
2022/04/13 09:50:33;;;;;;;4.40;3.28;;;;;;;27.19;23.76;94950.38;5051313;28;20309;-77
2022/04/13 09:53:05;;;;;;;3.25;2.78;;;;;;;27.06;23.55;94959.28;5050989;28;20194;-76
2022/04/13 09:55:35;;;;;;;9.48;2.70;;;;;;;26.95;23.50;94953.06;5051467;28;20187;-74
2022/04/13 09:58:06;;;;;;;4.97;2.78;;;;;;;26.88;23.85;94954.22;5050655;28;20198;-75
2022/04/13 10:00:34;;;;;;;5.57;3.10;;;;;;;26.78;24.21;94952.22;5051904;28;20191;-77
2022/04/13 10:03:10;;;;;;;4.35;3.05;;;;;;;26.68;24.08;94946.72;5049263;28;20191;-76
2022/04/13 10:05:37;;;;;;;4.03;2.90;;;;;;;26.56;23.97;94948.59;5051110;28;20682;-75
2022/04/13 10:08:08;;;;;;;2.90;2.70;;;;;;;26.45;24.13;94937.09;5050943;28;20218;-75
2022/04/13 10:10:35;;;;;;;4.68;2.65;;;;;;;26.37;24.48;94942.66;5051228;28;20313;-76
2022/04/13 10:13:02;;;;;;;6.18;2.97;;;;;;;26.38;24.55;94939.00;5047510;28;20202;-77
2022/04/13 10:15:30;;;;;;;3.65;2.83;;;;;;;26.28;24.74;94945.63;5050899;28;20202;-76
2022/04/13 10:17:59;;;;;;;4.30;2.67;;;;;;;26.21;24.53;94942.34;5051279;28;20194;-78
2022/04/13 10:20:41;;;;;;;3.72;2.90;;;;;;;26.18;24.84;94936.75;5050704;28;20199;-75
2022/04/13 10:23:09;;;;;;;3.42;2.50;;;;;;;26.14;24.96;94944.28;5050556;28;20227;-80
2022/04/13 10:25:36;;;;;;;4.93;2.45;;;;;;;26.08;25.23;94939.94;5047723;28;20187;-76
2022/04/13 10:28:04;;;;;;;7.80;2.97;;;;;;;25.92;25.18;94923.06;5049304;28;20188;-75
2022/04/13 10:30:32;;;;;;;4.75;2.70;;;;;;;25.93;25.57;94931.72;5050596;28;20724;-79
2022/04/13 10:33:01;;;;;;;5.43;2.42;;;;;;;25.85;25.57;94924.19;5050501;28;20179;-76
2022/04/13 10:35:29;;;;;;;5.30;2.33;;;;;;;25.83;25.50;94926.25;5050589;28;20210;-75
2022/04/13 10:37:56;;;;;;;2.58;2.38;;;;;;;25.76;25.92;94918.47;5048719;28;20191;-75
2022/04/13 10:40:26;;;;;;;3.47;2.95;;;;;;;25.73;25.86;94930.22;5044180;28;20199;-77
2022/04/13 10:42:54;;;;;;;4.25;2.60;;;;;;;25.67;26.24;94925.84;5051393;28;20195;-77
2022/04/13 10:45:21;;;;;;;3.20;2.60;;;;;;;25.64;25.96;94920.28;5053249;28;20716;-77
2022/04/13 10:48:01;;;;;;;3.58;2.25;;;;;;;25.57;26.49;94922.22;5052515;28;20209;-76
2022/04/13 10:50:39;;;;;;;3.08;2.05;;;;;;;25.54;26.95;94920.81;5041027;28;20435;-78
2022/04/13 10:53:18;;;;;;;6.40;2.08;;;;;;;25.48;27.14;94913.88;5046579;28;20193;-77
2022/04/13 10:55:53;;;;;;;6.72;2.50;;;;;;;25.42;26.61;94910.31;5051305;28;20195;-75
2022/04/13 10:58:25;;;;;;;3.67;2.72;;;;;;;25.33;26.26;94919.53;5050733;28;20687;-76
2022/04/13 11:00:58;;;;;;;3.17;2.55;;;;;;;25.25;26.29;94907.53;5051559;28;20195;-78
2022/04/13 11:03:30;;;;;;;2.83;2.25;;;;;;;25.20;26.61;94915.28;5051255;28;20562;-76
2022/04/13 11:05:58;;;;;;;3.83;2.70;;;;;;;25.15;26.39;94909.91;5050997;28;20222;-78
2022/04/13 11:08:31;;;;;;;3.50;2.17;;;;;;;25.11;26.53;94906.16;5050646;28;20222;-76
2022/04/13 11:11:00;;;;;;;3.72;2.60;;;;;;;25.05;26.17;94901.00;5051019;28;20222;-76
2022/04/13 11:13:32;;;;;;;3.70;2.50;;;;;;;24.99;26.37;94900.84;5050339;28;20740;-76
2022/04/13 11:16:16;;;;;;;2.88;2.30;;;;;;;24.97;26.17;94899.47;5050627;28;20195;-76
2022/04/13 11:18:43;;;;;;;3.28;2.50;;;;;;;24.93;26.71;94891.25;5048719;28;20183;-75
2022/04/13 11:21:11;;;;;;;2.53;2.33;;;;;;;24.88;26.91;94895.56;5050325;28;20191;-76
2022/04/13 11:23:51;;;;;;;3.78;2.63;;;;;;;24.80;26.46;94885.41;5050786;28;20241;-75
2022/04/13 11:26:27;;;;;;;3.70;2.20;;;;;;;24.79;27.04;94884.63;5050526;28;20195;-76
2022/04/13 11:29:19;;;;;;;2.45;2.00;;;;;;;24.75;26.70;94886.09;5050426;28;20193;-76
2022/04/13 11:32:11;;;;;;;2.53;2.30;;;;;;;24.71;26.52;94890.94;4969514;28;20202;-76
2022/04/13 11:34:43;;;;;;;4.45;2.60;;;;;;;24.66;26.43;94882.97;4968929;28;20245;-75
2022/04/13 11:37:12;;;;;;;3.92;2.00;;;;;;;24.52;26.36;94868.44;4969462;28;20196;-75
2022/04/13 11:39:53;;;;;;;2.25;2.08;;;;;;;24.56;26.54;94874.81;4969099;28;20194;-75
2022/04/13 11:42:52;;;;;;;2.63;2.42;;;;;;;24.51;26.66;94880.72;4968693;28;20196;-76